Paro, Bhutan
Current Conditions -  °F | °C
As of 11:50 AM on Tuesday 27 Jan 2015 (Local Time) from VNKT Reporting Station
Haze Haze  
Wind Chill: 14°   Ceiling: 10000
Heat Index: 14°   Visibility: 1.2mi
Dew Point:   Wind: 5mph
Humidity: 72%   Direction: 160°SSE
Pressure: 30.21"   Gusts: NA
Location:  27.51°N, 89.36°E
Report Text: VNKT 270550Z 16004KT 2000 HZ FEW015 SCT030 BKN100 14/09 Q1023 NOSIG
Loading
Personal Weather Stations






























Interactive Weather Map New forecast layout! Learn more

10-Day Weather Forecast

Advertisements
Track Severe Weather on mobile